Time;durP1;ratioP1;P1;durP2;ratioP2;P2;SDS_P1;SDS_P2;PMS_P1;PMS_P2;Temp;Humidity;BMP_temperature;BMP_pressure;BME280_temperature;BME280_humidity;BME280_pressure;Samples;Min_cycle;Max_cycle;Signal;HPM_P1;HPM_P2
2021/07/28 00:02:40;;;;;;;14.8;11.4;;;;;;;19.84;100;98358.31;;;;
2021/07/28 00:12:40;;;;;;;13.7;10.6;;;;;;;19.69;100;98364.77;;;;
2021/07/28 00:32:40;;;;;;;13.1;10;;;;;;;19.4;100;98350.72;;;;
2021/07/28 00:42:40;;;;;;;12.8;9.6;;;;;;;19.22;100;98348.92;;;;
2021/07/28 00:52:48;;;;;;;10.9;9.6;;;;;;;19.02;100;98329.91;;;;
2021/07/28 01:02:40;;;;;;;12.3;8.3;;;;;;;18.93;100;98317.69;;;;
2021/07/28 01:12:42;;;;;;;12;8.1;;;;;;;18.82;100;98317.53;;;;
2021/07/28 01:22:39;;;;;;;10.7;9.6;;;;;;;18.69;100;98326.3;;;;
2021/07/28 01:32:39;;;;;;;12.9;8.1;;;;;;;18.56;100;98317.53;;;;
2021/07/28 01:42:39;;;;;;;11.7;9;;;;;;;18.37;100;98323.03;;;;
2021/07/28 01:52:38;;;;;;;15;8.1;;;;;;;18.29;100;98304.98;;;;
2021/07/28 02:02:41;;;;;;;11.3;7.9;;;;;;;18.17;100;98300.49;;;;
2021/07/28 02:12:39;;;;;;;12.8;9.6;;;;;;;18.24;100;98302.55;;;;
2021/07/28 02:22:38;;;;;;;9.1;7.2;;;;;;;18.14;100;98294.98;;;;
2021/07/28 02:32:37;;;;;;;11.1;8.6;;;;;;;18.05;100;98293.27;;;;
2021/07/28 02:42:37;;;;;;;10.8;8;;;;;;;18.12;100;98295.33;;;;
2021/07/28 02:52:37;;;;;;;14.2;9.8;;;;;;;18.04;100;98302.63;;;;
2021/07/28 03:02:36;;;;;;;11.4;9.3;;;;;;;18.2;100;98313.4;;;;
2021/07/28 03:12:36;;;;;;;21;12.5;;;;;;;18.33;100;98312.05;;;;
2021/07/28 03:22:36;;;;;;;13.7;10.1;;;;;;;18.53;100;98310.08;;;;
2021/07/28 03:32:36;;;;;;;16.6;10.8;;;;;;;18.84;100;98314.45;;;;
2021/07/28 03:42:35;;;;;;;13.2;9.8;;;;;;;19.02;100;98312.77;;;;
2021/07/28 03:52:35;;;;;;;18;10.8;;;;;;;18.93;100;98304.83;;;;
2021/07/28 04:02:35;;;;;;;11.2;8.6;;;;;;;18.98;100;98303.73;;;;
2021/07/28 04:12:35;;;;;;;13;9.2;;;;;;;19.18;100;98302.43;;;;
2021/07/28 04:22:35;;;;;;;12.6;9.5;;;;;;;19.08;100;98311.27;;;;
2021/07/28 04:32:35;;;;;;;12.3;8.8;;;;;;;19.44;100;98307.85;;;;
2021/07/28 04:42:36;;;;;;;18.6;8;;;;;;;19.94;100;98286.52;;;;
2021/07/28 04:52:35;;;;;;;8.5;6;;;;;;;20.33;100;98275.96;;;;
2021/07/28 05:02:35;;;;;;;12;5.5;;;;;;;20.53;100;98260.85;;;;
2021/07/28 05:12:35;;;;;;;6.2;4.7;;;;;;;21.03;100;98254.48;;;;
2021/07/28 05:22:35;;;;;;;10;5.2;;;;;;;21.59;100;98261.38;;;;
2021/07/28 05:32:35;;;;;;;10.4;5.9;;;;;;;22.06;100;98260.33;;;;
2021/07/28 05:42:36;;;;;;;6.3;4.7;;;;;;;22.56;100;98252.88;;;;
2021/07/28 05:52:36;;;;;;;10.3;4.7;;;;;;;23.03;100;98260.64;;;;
2021/07/28 06:02:36;;;;;;;11.4;5.3;;;;;;;23.47;100;98248.3;;;;
2021/07/28 06:12:37;;;;;;;10;5.1;;;;;;;23.8;100;98252.45;;;;
2021/07/28 06:22:37;;;;;;;8;5.3;;;;;;;24.11;100;98256.16;;;;
2021/07/28 06:32:38;;;;;;;8.3;5.3;;;;;;;24.42;100;98255.16;;;;
2021/07/28 06:42:38;;;;;;;8.2;5.3;;;;;;;24.67;100;98252.17;;;;
2021/07/28 06:52:40;;;;;;;12.5;5.1;;;;;;;24.78;100;98250.09;;;;
2021/07/28 07:02:40;;;;;;;11;6.1;;;;;;;24.9;100;98244.86;;;;
2021/07/28 07:12:40;;;;;;;7.7;5.7;;;;;;;25.38;100;98236.39;;;;
2021/07/28 07:22:42;;;;;;;8.4;5;;;;;;;25.67;100;98230.52;;;;
2021/07/28 07:32:42;;;;;;;8.9;4.6;;;;;;;26.06;100;98216.13;;;;
2021/07/28 07:42:42;;;;;;;7.8;4.6;;;;;;;26.24;100;98213.89;;;;
2021/07/28 07:52:43;;;;;;;10.7;5.5;;;;;;;26.46;100;98201.25;;;;
2021/07/28 08:02:44;;;;;;;7.2;4.7;;;;;;;26.86;100;98204.89;;;;
2021/07/28 08:22:46;;;;;;;9.4;5.2;;;;;;;27.56;100;98191.55;;;;
2021/07/28 08:32:47;;;;;;;11;4.4;;;;;;;27.89;100;98179.31;;;;
2021/07/28 08:42:48;;;;;;;10.2;5.3;;;;;;;28.13;100;98176.38;;;;
2021/07/28 08:52:49;;;;;;;14;5.9;;;;;;;28.37;98.52051;98178.52;;;;
2021/07/28 09:02:52;;;;;;;8.7;5.3;;;;;;;28.74;100;98179.92;;;;
2021/07/28 09:12:54;;;;;;;9.8;4.5;;;;;;;29.14;98.27441;98174.05;;;;
2021/07/28 09:22:53;;;;;;;18.2;4.7;;;;;;;29.2;95.67773;98169.5;;;;
2021/07/28 09:32:59;;;;;;;9;3.9;;;;;;;29.47;88.45605;98178.22;;;;
2021/07/28 09:42:57;;;;;;;16.7;4.1;;;;;;;29.3;89.56152;98171.2;;;;
2021/07/28 09:52:57;;;;;;;10.6;5.5;;;;;;;29.74;83.1748;98173.02;;;;
2021/07/28 10:02:58;;;;;;;7.6;3.2;;;;;;;30.17;83.78125;98163.3;;;;
2021/07/28 10:12:59;;;;;;;7.6;4.1;;;;;;;30.17;74.58789;98163.3;;;;
2021/07/28 10:23:01;;;;;;;12.7;5.5;;;;;;;30.65;78.04395;98148.91;;;;
2021/07/28 10:33:02;;;;;;;8.2;3.3;;;;;;;30.62;66.67871;98152.61;;;;
2021/07/28 10:43:04;;;;;;;9.8;4.1;;;;;;;30.53;68.5;98146.98;;;;
2021/07/28 10:53:05;;;;;;;7.5;3;;;;;;;30.49;69.80664;98140.77;;;;
2021/07/28 11:03:06;;;;;;;9.5;4.1;;;;;;;30.4;72.03906;98137.89;;;;
2021/07/28 11:13:08;;;;;;;8.1;4;;;;;;;30.5;70.80273;98136.77;;;;
2021/07/28 11:23:36;;;;;;;9.6;5.4;;;;;;;30.74;71.1709;98135.09;;;;
2021/07/28 11:33:17;;;;;;;7.8;4.6;;;;;;;31.09;70.33594;98138.59;;;;
2021/07/28 11:43:22;;;;;;;11.1;5.7;;;;;;;31.17;69.96973;98139.85;;;;
2021/07/28 11:53:14;;;;;;;10;4.9;;;;;;;31.55;69.26758;98130.48;;;;
2021/07/28 12:03:15;;;;;;;6.4;3.5;;;;;;;31.67;69.74902;98119.21;;;;
2021/07/28 12:13:17;;;;;;;8.5;5.4;;;;;;;31.45;69.53906;98112.9;;;;
2021/07/28 12:23:18;;;;;;;10.7;4.7;;;;;;;31.64;71.52344;98113.78;;;;
2021/07/28 12:33:20;;;;;;;7.7;4.2;;;;;;;31.65;68.46582;98102.19;;;;
2021/07/28 12:43:22;;;;;;;9.6;4.7;;;;;;;31.89;67.5293;98094.81;;;;
2021/07/28 12:53:24;;;;;;;8.7;4.3;;;;;;;31.32;68.54688;98084.38;;;;
2021/07/28 13:03:27;;;;;;;8;4.5;;;;;;;31.77;68.56641;98072.63;;;;
2021/07/28 13:13:26;;;;;;;11.9;5.3;;;;;;;31.74;68.65723;98074.33;;;;
2021/07/28 13:23:29;;;;;;;8.8;4.1;;;;;;;31.64;67.65723;98063.63;;;;
2021/07/28 13:33:30;;;;;;;10;4.3;;;;;;;31.96;70.2793;98065.08;;;;
2021/07/28 13:43:31;;;;;;;10.1;4.4;;;;;;;32.04;66.5166;98055.18;;;;
2021/07/28 13:53:33;;;;;;;8.9;6.2;;;;;;;32.23;70.52344;98042.8;;;;
2021/07/28 14:03:35;;;;;;;9.7;4.8;;;;;;;32.53;67.33691;98032.68;;;;
2021/07/28 14:13:36;;;;;;;10.5;4.9;;;;;;;32.76;65.44336;98032.05;;;;
2021/07/28 14:23:38;;;;;;;11.3;5.2;;;;;;;32.93;68.77539;98021.3;;;;
2021/07/28 14:33:39;;;;;;;25.5;7.4;;;;;;;32.94;67.59863;98008.89;;;;
2021/07/28 14:43:41;;;;;;;8.6;5.1;;;;;;;33.22;63.51953;97994.34;;;;
2021/07/28 14:53:43;;;;;;;15;5.7;;;;;;;33.36;64.05176;97990.84;;;;
2021/07/28 15:03:44;;;;;;;13.1;5.2;;;;;;;33.79;61.52051;97983.91;;;;
2021/07/28 15:13:47;;;;;;;9.5;6.1;;;;;;;33.08;64.71484;97991.45;;;;
2021/07/28 15:23:48;;;;;;;9;5.6;;;;;;;34.57;61.44531;97987.42;;;;
2021/07/28 15:33:50;;;;;;;8.5;3.8;;;;;;;34.7;56.37207;97979.52;;;;
2021/07/28 15:43:52;;;;;;;12;6.6;;;;;;;32.79;61.82813;97970.48;;;;
2021/07/28 15:53:53;;;;;;;10.2;5.4;;;;;;;31.5;67.95703;97977.82;;;;
2021/07/28 16:03:55;;;;;;;15.1;6.2;;;;;;;30.31;83.39453;97965.39;;;;
2021/07/28 16:13:56;;;;;;;9.4;4.9;;;;;;;29.67;79.95996;97933.58;;;;
2021/07/28 16:23:58;;;;;;;13.7;4.7;;;;;;;28.93;90.90723;97932.06;;;;
2021/07/28 16:33:59;;;;;;;17.7;11.1;;;;;;;28.44;95.28711;97945.45;;;;
2021/07/28 16:44:00;;;;;;;14.6;8.6;;;;;;;28.08;99.00293;97941.41;;;;
2021/07/28 16:54:01;;;;;;;18.1;9.8;;;;;;;27.79;100;97953.24;;;;
2021/07/28 17:04:02;;;;;;;19.6;10.9;;;;;;;27.62;100;97970.33;;;;
2021/07/28 17:14:03;;;;;;;13.7;7.8;;;;;;;27.66;100;97949.66;;;;
2021/07/28 17:24:06;;;;;;;13.1;7.7;;;;;;;27.33;100;97956.41;;;;
2021/07/28 17:34:07;;;;;;;10.6;6.6;;;;;;;26.96;100;97936.38;;;;
2021/07/28 17:44:06;;;;;;;17.3;7.2;;;;;;;26.71;100;97960.25;;;;
2021/07/28 17:54:07;;;;;;;10.5;6.6;;;;;;;26.14;100;97980.78;;;;
2021/07/28 18:04:08;;;;;;;11.7;7.7;;;;;;;25.9;100;98017.94;;;;
2021/07/28 18:14:09;;;;;;;11.2;6.6;;;;;;;25.47;100;98042.73;;;;
2021/07/28 18:24:10;;;;;;;13.2;7.1;;;;;;;25.21;100;98043.53;;;;
2021/07/28 18:34:10;;;;;;;12.3;7.8;;;;;;;24.89;100;98025.48;;;;
2021/07/28 18:44:11;;;;;;;10.5;7.2;;;;;;;24.64;100;98030.55;;;;
2021/07/28 18:54:12;;;;;;;10.1;6.6;;;;;;;24.29;100;98036.5;;;;
2021/07/28 19:04:13;;;;;;;11;6.2;;;;;;;24.21;100;98029.5;;;;
2021/07/28 19:14:13;;;;;;;12;6.9;;;;;;;24.16;100;98058.27;;;;
2021/07/28 19:24:13;;;;;;;8.9;6.5;;;;;;;24.08;100;98067;;;;
2021/07/28 19:34:14;;;;;;;12.3;7.3;;;;;;;24;100;98078.08;;;;
2021/07/28 19:44:14;;;;;;;12.6;7.8;;;;;;;23.84;100;98110.88;;;;
2021/07/28 19:54:15;;;;;;;13;7.5;;;;;;;23.48;100;98129.63;;;;
2021/07/28 20:04:16;;;;;;;12.7;7.3;;;;;;;22.9;100;98154.29;;;;
2021/07/28 20:14:16;;;;;;;12.7;7.4;;;;;;;22.39;100;98155.58;;;;
2021/07/28 20:24:16;;;;;;;12.1;7.1;;;;;;;21.88;100;98117.6;;;;
2021/07/28 20:34:17;;;;;;;9.9;6.4;;;;;;;21.74;100;98111.33;;;;
2021/07/28 20:44:17;;;;;;;12.4;7.1;;;;;;;21.38;100;98140.71;;;;
2021/07/28 20:54:17;;;;;;;10.7;7.3;;;;;;;21;100;98131.95;;;;
2021/07/28 21:04:18;;;;;;;11.2;7.7;;;;;;;20.82;100;98155.79;;;;
2021/07/28 21:14:18;;;;;;;10.9;7.4;;;;;;;20.86;100;98167.52;;;;
2021/07/28 21:24:17;;;;;;;11;8;;;;;;;20.82;100;98179.66;;;;
2021/07/28 21:34:18;;;;;;;13.4;7.3;;;;;;;20.88;100;98175.37;;;;
2021/07/28 21:44:19;;;;;;;10.7;5.1;;;;;;;20.98;100;98175.41;;;;
2021/07/28 21:54:18;;;;;;;9.1;6.6;;;;;;;20.9;100;98187.5;;;;
2021/07/28 22:04:18;;;;;;;12;7;;;;;;;20.91;100;98210.2;;;;
2021/07/28 22:14:18;;;;;;;10.6;6.4;;;;;;;20.84;100;98205.48;;;;
2021/07/28 22:24:18;;;;;;;11.4;7;;;;;;;20.82;100;98210.58;;;;
2021/07/28 22:34:18;;;;;;;11.9;5.7;;;;;;;20.72;100;98208.54;;;;
2021/07/28 22:44:18;;;;;;;10.1;6.3;;;;;;;20.7;100;98221.05;;;;
2021/07/28 22:54:18;;;;;;;11.7;7.6;;;;;;;20.55;100;98237.39;;;;
2021/07/28 23:14:19;;;;;;;8.2;6;;;;;;;20.64;100;98219.85;;;;
2021/07/28 23:24:19;;;;;;;17.7;7.4;;;;;;;20.65;100;98224.95;;;;
2021/07/28 23:34:19;;;;;;;10.7;7.8;;;;;;;20.64;100;98215.16;;;;
2021/07/28 23:44:19;;;;;;;9.5;7.2;;;;;;;20.64;100;98245.28;;;;
2021/07/28 23:54:19;;;;;;;9.7;7.5;;;;;;;20.66;100;98253.89;;;;
